KBPI/BPI METAR and TAF weather

Enter ICAO airport designator
Station Type Date Time Source
KBPI METAR 2020/09/30 15:53 UTC NOAA

KBPI 301553Z AUTO 18006KT 10SM CLR 09/M07 A3045 RMK AO2 SLP255 T00891072


Station Type Date Time Source
KBPI Decoded METAR 2020/09/30 15:53 UTC NOAA

BIG PINEY-MARBLETON AIRPORT, WY, United States (KBPI) 42-35N 110-06W 2117M
Sep 30, 2020 - 11:53 AM EDT / 2020.09.30 1553 UTC
Wind: from the S (180 degrees) at 7 MPH (6 KT):0
Visibility: 10 mile(s):0
Sky conditions: clear
Temperature: 48.0 F (8.9 C)
Dew Point: 19.0 F (-7.2 C)
Relative Humidity: 31%
Pressure (altimeter): 30.45 in. Hg (1031 hPa)
ob: KBPI 301553Z AUTO 18006KT 10SM CLR 09/M07 A3045 RMK AO2 SLP255 T00891072
cycle: 16

Station Type Date Time Source
KBPI TAF 2020/09/30 12:24 UTC NOAA

TAF KBPI 301122Z 3012/0112 34008KT P6SM SKC
FM302100 33012G22KT P6SM SKC
FM010400 35008KT P6SM SKC

Example: see airport list